This is the latest recevied weather packets stored in our database for station/object WC4PEM-11. If no packets are shown the sender has not sent any weather packets the latest 1 day(s).
| Time | Temp. | Humidity | Pressure | Rain* | Wind** | Luminosity | Snow |
|---|---|---|---|---|---|---|---|
| 1778028183 | 25° C | 63% | 1015.2 hPa | 0 mm | 1.34 m/s, 68° | - | - |
| 1778027883 | 25° C | 62% | 1015.1 hPa | 0 mm | 1.34 m/s, 110° | - | - |
| 1778027583 | 25.56° C | 62% | 1015.2 hPa | 0 mm | 1.79 m/s, 133° | - | - |
| 1778027283 | 25.56° C | 61% | 1015 hPa | 0 mm | 2.24 m/s, 133° | - | - |
| 1778026983 | 26.11° C | 61% | 1014.9 hPa | 0 mm | 1.79 m/s, 126° | - | - |
| 1778026683 | 26.11° C | 60% | 1014.8 hPa | 0 mm | 1.34 m/s, 115° | - | - |
| 1778026383 | 26.11° C | 59% | 1014.7 hPa | 0 mm | 1.79 m/s, 126° | - | - |
| 1778026148 | 27.22° C | 57% | 1014.5 hPa | 0 mm | 1.34 m/s, 88° | - | - |
| 1778026083 | 26.67° C | 58% | 1014.7 hPa | 0 mm | 2.24 m/s, 129° | - | - |
| 1778025783 | 26.67° C | 58% | 1014.6 hPa | 0 mm | 2.24 m/s, 104° | - | - |
| 1778025483 | 27.22° C | 57% | 1014.5 hPa | 0 mm | 1.34 m/s, 88° | - | - |
| 1778025183 | 27.22° C | 57% | 1014.4 hPa | 0 mm | 1.34 m/s, 142° | - | - |
| 1778024884 | 27.78° C | 56% | 1014.3 hPa | 0 mm | 1.34 m/s, 93° | - | - |
| 1778024583 | 27.78° C | 55% | 1014.2 hPa | 0 mm | 1.34 m/s, 117° | - | - |
| 1778024284 | 28.33° C | 54% | 1014.2 hPa | 0 mm | 1.34 m/s, 76° | - | - |
| 1778023983 | 28.33° C | 54% | 1014.2 hPa | 0 mm | 1.34 m/s, 126° | - | - |
| 1778023683 | 28.33° C | 53% | 1014.3 hPa | 0 mm | 1.34 m/s, 117° | - | - |
| 1778023384 | 28.89° C | 53% | 1014.2 hPa | 0 mm | 1.79 m/s, 85° | - | - |
| 1778023083 | 28.89° C | 52% | 1014.2 hPa | 0 mm | 1.79 m/s, 99° | - | - |
| 1778022878 | 28.89° C | 52% | 1014.2 hPa | 0 mm | 1.79 m/s, 90° | - | - |
| 1778022784 | 28.89° C | 52% | 1014.2 hPa | 0 mm | 1.79 m/s, 90° | - | - |
| 1778022505 | 28.89° C | 51% | 1014.2 hPa | 0 mm | 2.24 m/s, 87° | - | - |
| 1778022484 | 28.89° C | 52% | 1014.2 hPa | 0 mm | 2.24 m/s, 117° | - | - |
| 1778022184 | 28.89° C | 51% | 1014.2 hPa | 0 mm | 2.24 m/s, 87° | - | - |
| 1778021920 | 28.89° C | 53% | 1014.2 hPa | 0 mm | 2.24 m/s, 90° | - | - |
* Rain latest hour (hover to see other rain measurements)
** Current wind speed in m/s (hover to see current wind gust speed)